sensor_id;sensor_type;location;lat;lon;timestamp;P1;durP1;ratioP1;P2;durP2;ratioP2
54372;SDS011;69157;53.094;10.016;2023-08-20T00:00:54;6.57;;;3.53;;
54372;SDS011;69157;53.094;10.016;2023-08-20T00:03:21;7.28;;;4.00;;
54372;SDS011;69157;53.094;10.016;2023-08-20T00:05:47;7.88;;;4.40;;
54372;SDS011;69157;53.094;10.016;2023-08-20T00:08:13;7.30;;;3.65;;
54372;SDS011;69157;53.094;10.016;2023-08-20T00:10:39;7.50;;;3.90;;
54372;SDS011;69157;53.094;10.016;2023-08-20T00:13:05;7.35;;;3.65;;
54372;SDS011;69157;53.094;10.016;2023-08-20T00:15:31;6.95;;;3.58;;
54372;SDS011;69157;53.094;10.016;2023-08-20T00:17:58;6.05;;;3.35;;
54372;SDS011;69157;53.094;10.016;2023-08-20T00:20:24;5.32;;;3.20;;
54372;SDS011;69157;53.094;10.016;2023-08-20T00:22:50;6.20;;;3.90;;
54372;SDS011;69157;53.094;10.016;2023-08-20T00:25:16;6.00;;;3.58;;
54372;SDS011;69157;53.094;10.016;2023-08-20T00:27:43;6.80;;;3.80;;
54372;SDS011;69157;53.094;10.016;2023-08-20T00:30:11;8.95;;;3.97;;
54372;SDS011;69157;53.094;10.016;2023-08-20T00:32:37;10.52;;;4.40;;
54372;SDS011;69157;53.094;10.016;2023-08-20T00:35:03;7.30;;;4.10;;
54372;SDS011;69157;53.094;10.016;2023-08-20T00:37:30;8.35;;;4.68;;
54372;SDS011;69157;53.094;10.016;2023-08-20T00:39:56;10.50;;;4.60;;
54372;SDS011;69157;53.094;10.016;2023-08-20T00:42:23;9.05;;;4.65;;
54372;SDS011;69157;53.094;10.016;2023-08-20T00:44:51;9.30;;;4.32;;
54372;SDS011;69157;53.094;10.016;2023-08-20T00:47:17;10.18;;;4.53;;
54372;SDS011;69157;53.094;10.016;2023-08-20T00:49:43;7.97;;;4.88;;
54372;SDS011;69157;53.094;10.016;2023-08-20T00:52:10;7.75;;;3.83;;
54372;SDS011;69157;53.094;10.016;2023-08-20T00:54:37;9.85;;;4.63;;
54372;SDS011;69157;53.094;10.016;2023-08-20T00:57:05;11.32;;;4.68;;
54372;SDS011;69157;53.094;10.016;2023-08-20T00:59:32;8.63;;;4.35;;
54372;SDS011;69157;53.094;10.016;2023-08-20T01:01:58;6.30;;;3.92;;
54372;SDS011;69157;53.094;10.016;2023-08-20T01:04:24;12.50;;;4.63;;
54372;SDS011;69157;53.094;10.016;2023-08-20T01:06:54;10.55;;;4.40;;
54372;SDS011;69157;53.094;10.016;2023-08-20T01:11:57;8.13;;;4.72;;
54372;SDS011;69157;53.094;10.016;2023-08-20T01:14:23;8.05;;;4.30;;
54372;SDS011;69157;53.094;10.016;2023-08-20T01:16:49;7.07;;;4.00;;
54372;SDS011;69157;53.094;10.016;2023-08-20T01:19:17;7.75;;;3.70;;
54372;SDS011;69157;53.094;10.016;2023-08-20T01:24:24;11.98;;;4.22;;
54372;SDS011;69157;53.094;10.016;2023-08-20T01:29:42;7.80;;;4.22;;
54372;SDS011;69157;53.094;10.016;2023-08-20T01:32:08;10.73;;;5.07;;
54372;SDS011;69157;53.094;10.016;2023-08-20T01:34:35;10.15;;;4.35;;
54372;SDS011;69157;53.094;10.016;2023-08-20T01:37:01;11.10;;;4.63;;
54372;SDS011;69157;53.094;10.016;2023-08-20T01:39:27;10.07;;;4.80;;
54372;SDS011;69157;53.094;10.016;2023-08-20T01:41:53;9.73;;;5.00;;
54372;SDS011;69157;53.094;10.016;2023-08-20T01:44:19;9.02;;;4.70;;
54372;SDS011;69157;53.094;10.016;2023-08-20T01:46:45;10.85;;;5.38;;
54372;SDS011;69157;53.094;10.016;2023-08-20T01:49:11;11.70;;;5.55;;
54372;SDS011;69157;53.094;10.016;2023-08-20T01:51:37;12.73;;;4.47;;
54372;SDS011;69157;53.094;10.016;2023-08-20T01:54:04;11.82;;;5.32;;
54372;SDS011;69157;53.094;10.016;2023-08-20T01:56:30;12.60;;;5.32;;
54372;SDS011;69157;53.094;10.016;2023-08-20T01:58:56;12.38;;;6.32;;
54372;SDS011;69157;53.094;10.016;2023-08-20T02:01:22;14.85;;;6.03;;
54372;SDS011;69157;53.094;10.016;2023-08-20T02:03:48;10.05;;;5.50;;
54372;SDS011;69157;53.094;10.016;2023-08-20T02:06:14;12.85;;;5.47;;
54372;SDS011;69157;53.094;10.016;2023-08-20T02:08:40;10.80;;;6.05;;
54372;SDS011;69157;53.094;10.016;2023-08-20T02:11:06;10.98;;;5.60;;
54372;SDS011;69157;53.094;10.016;2023-08-20T02:13:32;12.50;;;5.90;;
54372;SDS011;69157;53.094;10.016;2023-08-20T02:15:59;12.35;;;5.97;;
54372;SDS011;69157;53.094;10.016;2023-08-20T02:18:25;13.82;;;6.43;;
54372;SDS011;69157;53.094;10.016;2023-08-20T02:20:51;13.95;;;5.45;;
54372;SDS011;69157;53.094;10.016;2023-08-20T02:23:17;11.23;;;5.72;;
54372;SDS011;69157;53.094;10.016;2023-08-20T02:25:43;13.02;;;6.07;;
54372;SDS011;69157;53.094;10.016;2023-08-20T02:28:09;10.77;;;5.72;;
54372;SDS011;69157;53.094;10.016;2023-08-20T02:30:40;13.32;;;5.63;;
54372;SDS011;69157;53.094;10.016;2023-08-20T02:33:06;16.02;;;6.00;;
54372;SDS011;69157;53.094;10.016;2023-08-20T02:35:32;16.27;;;6.60;;
54372;SDS011;69157;53.094;10.016;2023-08-20T02:37:58;13.13;;;5.40;;
54372;SDS011;69157;53.094;10.016;2023-08-20T02:40:24;11.13;;;5.65;;
54372;SDS011;69157;53.094;10.016;2023-08-20T02:42:51;13.75;;;5.57;;
54372;SDS011;69157;53.094;10.016;2023-08-20T02:45:17;11.80;;;5.70;;
54372;SDS011;69157;53.094;10.016;2023-08-20T02:47:43;15.15;;;6.25;;
54372;SDS011;69157;53.094;10.016;2023-08-20T02:50:09;10.93;;;4.63;;
54372;SDS011;69157;53.094;10.016;2023-08-20T02:52:35;11.18;;;5.28;;
54372;SDS011;69157;53.094;10.016;2023-08-20T02:55:01;13.57;;;5.43;;
54372;SDS011;69157;53.094;10.016;2023-08-20T02:57:29;11.77;;;5.85;;
54372;SDS011;69157;53.094;10.016;2023-08-20T02:59:56;12.73;;;5.70;;
54372;SDS011;69157;53.094;10.016;2023-08-20T03:02:22;9.55;;;4.78;;
54372;SDS011;69157;53.094;10.016;2023-08-20T03:04:48;9.52;;;4.72;;
54372;SDS011;69157;53.094;10.016;2023-08-20T03:07:14;9.35;;;4.90;;
54372;SDS011;69157;53.094;10.016;2023-08-20T03:09:40;11.43;;;4.70;;
54372;SDS011;69157;53.094;10.016;2023-08-20T03:12:06;12.23;;;5.40;;
54372;SDS011;69157;53.094;10.016;2023-08-20T03:14:32;8.43;;;4.68;;
54372;SDS011;69157;53.094;10.016;2023-08-20T03:16:58;9.00;;;4.55;;
54372;SDS011;69157;53.094;10.016;2023-08-20T03:19:24;12.02;;;4.63;;
54372;SDS011;69157;53.094;10.016;2023-08-20T03:21:50;12.25;;;5.03;;
54372;SDS011;69157;53.094;10.016;2023-08-20T03:24:17;11.23;;;4.68;;
54372;SDS011;69157;53.094;10.016;2023-08-20T03:26:43;12.50;;;5.65;;
54372;SDS011;69157;53.094;10.016;2023-08-20T03:29:11;9.55;;;4.40;;
54372;SDS011;69157;53.094;10.016;2023-08-20T03:31:37;10.57;;;4.43;;
54372;SDS011;69157;53.094;10.016;2023-08-20T03:34:03;8.90;;;3.78;;
54372;SDS011;69157;53.094;10.016;2023-08-20T03:36:29;9.60;;;3.83;;
54372;SDS011;69157;53.094;10.016;2023-08-20T03:38:55;11.65;;;4.43;;
54372;SDS011;69157;53.094;10.016;2023-08-20T03:41:21;10.18;;;4.25;;
54372;SDS011;69157;53.094;10.016;2023-08-20T03:43:47;7.50;;;4.05;;
54372;SDS011;69157;53.094;10.016;2023-08-20T03:46:13;9.27;;;4.10;;
54372;SDS011;69157;53.094;10.016;2023-08-20T03:48:39;9.32;;;4.07;;
54372;SDS011;69157;53.094;10.016;2023-08-20T03:51:05;9.93;;;4.18;;
54372;SDS011;69157;53.094;10.016;2023-08-20T03:53:32;9.40;;;4.55;;
54372;SDS011;69157;53.094;10.016;2023-08-20T03:55:58;8.35;;;4.13;;
54372;SDS011;69157;53.094;10.016;2023-08-20T03:58:24;8.73;;;4.05;;
54372;SDS011;69157;53.094;10.016;2023-08-20T04:00:50;9.95;;;4.40;;
54372;SDS011;69157;53.094;10.016;2023-08-20T04:03:16;8.73;;;3.83;;
54372;SDS011;69157;53.094;10.016;2023-08-20T04:05:44;9.90;;;4.38;;
54372;SDS011;69157;53.094;10.016;2023-08-20T04:08:10;7.68;;;3.50;;
54372;SDS011;69157;53.094;10.016;2023-08-20T04:10:42;12.57;;;4.70;;
54372;SDS011;69157;53.094;10.016;2023-08-20T04:13:09;9.15;;;4.25;;
54372;SDS011;69157;53.094;10.016;2023-08-20T04:15:35;8.25;;;3.78;;
54372;SDS011;69157;53.094;10.016;2023-08-20T04:18:01;7.32;;;3.78;;
54372;SDS011;69157;53.094;10.016;2023-08-20T04:20:27;11.23;;;4.65;;
54372;SDS011;69157;53.094;10.016;2023-08-20T04:22:53;6.15;;;3.20;;
54372;SDS011;69157;53.094;10.016;2023-08-20T04:25:19;10.15;;;4.32;;
54372;SDS011;69157;53.094;10.016;2023-08-20T04:27:45;8.30;;;3.83;;
54372;SDS011;69157;53.094;10.016;2023-08-20T04:30:11;9.90;;;4.00;;
54372;SDS011;69157;53.094;10.016;2023-08-20T04:32:37;8.68;;;4.07;;
54372;SDS011;69157;53.094;10.016;2023-08-20T04:35:03;9.20;;;3.58;;
54372;SDS011;69157;53.094;10.016;2023-08-20T04:37:29;9.60;;;4.25;;
54372;SDS011;69157;53.094;10.016;2023-08-20T04:39:55;7.93;;;3.65;;
54372;SDS011;69157;53.094;10.016;2023-08-20T04:42:21;6.95;;;3.50;;
54372;SDS011;69157;53.094;10.016;2023-08-20T04:44:47;6.90;;;3.80;;
54372;SDS011;69157;53.094;10.016;2023-08-20T04:47:13;10.00;;;5.07;;
54372;SDS011;69157;53.094;10.016;2023-08-20T04:49:39;7.82;;;3.75;;
54372;SDS011;69157;53.094;10.016;2023-08-20T04:52:05;6.07;;;3.20;;
54372;SDS011;69157;53.094;10.016;2023-08-20T04:54:31;7.47;;;3.40;;
54372;SDS011;69157;53.094;10.016;2023-08-20T04:56:58;6.60;;;3.42;;
54372;SDS011;69157;53.094;10.016;2023-08-20T04:59:24;8.05;;;3.85;;
54372;SDS011;69157;53.094;10.016;2023-08-20T05:01:50;7.13;;;4.00;;
54372;SDS011;69157;53.094;10.016;2023-08-20T05:04:16;12.18;;;4.07;;
54372;SDS011;69157;53.094;10.016;2023-08-20T05:06:42;9.32;;;4.18;;
54372;SDS011;69157;53.094;10.016;2023-08-20T05:09:08;5.30;;;3.20;;
54372;SDS011;69157;53.094;10.016;2023-08-20T05:11:34;5.97;;;3.47;;
54372;SDS011;69157;53.094;10.016;2023-08-20T05:14:00;6.78;;;3.50;;
54372;SDS011;69157;53.094;10.016;2023-08-20T05:16:26;5.60;;;3.25;;
54372;SDS011;69157;53.094;10.016;2023-08-20T05:18:52;5.57;;;2.70;;
54372;SDS011;69157;53.094;10.016;2023-08-20T05:21:18;5.45;;;3.05;;
54372;SDS011;69157;53.094;10.016;2023-08-20T05:23:44;6.15;;;3.00;;
54372;SDS011;69157;53.094;10.016;2023-08-20T05:26:10;4.03;;;2.45;;
54372;SDS011;69157;53.094;10.016;2023-08-20T05:28:36;8.07;;;4.10;;
54372;SDS011;69157;53.094;10.016;2023-08-20T05:31:02;5.72;;;3.17;;
54372;SDS011;69157;53.094;10.016;2023-08-20T05:33:29;6.28;;;3.15;;
54372;SDS011;69157;53.094;10.016;2023-08-20T05:35:55;6.32;;;3.10;;
54372;SDS011;69157;53.094;10.016;2023-08-20T05:38:21;4.95;;;3.22;;
54372;SDS011;69157;53.094;10.016;2023-08-20T05:40:47;5.78;;;3.38;;
54372;SDS011;69157;53.094;10.016;2023-08-20T05:43:13;4.95;;;3.40;;
54372;SDS011;69157;53.094;10.016;2023-08-20T05:45:39;7.28;;;3.65;;
54372;SDS011;69157;53.094;10.016;2023-08-20T05:48:06;7.20;;;4.13;;
54372;SDS011;69157;53.094;10.016;2023-08-20T05:50:32;6.53;;;3.58;;
54372;SDS011;69157;53.094;10.016;2023-08-20T05:52:58;8.80;;;3.72;;
54372;SDS011;69157;53.094;10.016;2023-08-20T05:55:24;7.85;;;3.80;;
54372;SDS011;69157;53.094;10.016;2023-08-20T05:57:50;8.07;;;4.60;;
54372;SDS011;69157;53.094;10.016;2023-08-20T06:00:16;8.27;;;4.25;;
54372;SDS011;69157;53.094;10.016;2023-08-20T06:02:43;7.80;;;4.25;;
54372;SDS011;69157;53.094;10.016;2023-08-20T06:05:09;6.60;;;3.97;;
54372;SDS011;69157;53.094;10.016;2023-08-20T06:07:35;7.28;;;4.15;;
54372;SDS011;69157;53.094;10.016;2023-08-20T06:10:01;7.95;;;4.40;;
54372;SDS011;69157;53.094;10.016;2023-08-20T06:12:27;8.27;;;4.20;;
54372;SDS011;69157;53.094;10.016;2023-08-20T06:14:54;6.00;;;3.78;;
54372;SDS011;69157;53.094;10.016;2023-08-20T06:17:20;8.00;;;4.03;;
54372;SDS011;69157;53.094;10.016;2023-08-20T06:19:46;7.18;;;3.85;;
54372;SDS011;69157;53.094;10.016;2023-08-20T06:22:12;7.25;;;3.95;;
54372;SDS011;69157;53.094;10.016;2023-08-20T06:24:38;7.57;;;4.47;;
54372;SDS011;69157;53.094;10.016;2023-08-20T06:27:04;6.32;;;3.60;;
54372;SDS011;69157;53.094;10.016;2023-08-20T06:29:30;7.35;;;4.00;;
54372;SDS011;69157;53.094;10.016;2023-08-20T06:31:56;7.88;;;4.53;;
54372;SDS011;69157;53.094;10.016;2023-08-20T06:34:22;6.53;;;3.53;;
54372;SDS011;69157;53.094;10.016;2023-08-20T06:36:49;6.25;;;3.60;;
54372;SDS011;69157;53.094;10.016;2023-08-20T06:39:15;6.00;;;3.63;;
54372;SDS011;69157;53.094;10.016;2023-08-20T06:41:41;6.55;;;3.97;;
54372;SDS011;69157;53.094;10.016;2023-08-20T06:44:07;5.88;;;3.28;;
54372;SDS011;69157;53.094;10.016;2023-08-20T06:46:34;6.25;;;3.55;;
54372;SDS011;69157;53.094;10.016;2023-08-20T06:49:00;5.57;;;3.05;;
54372;SDS011;69157;53.094;10.016;2023-08-20T06:51:26;7.45;;;3.08;;
54372;SDS011;69157;53.094;10.016;2023-08-20T06:53:53;4.88;;;3.05;;
54372;SDS011;69157;53.094;10.016;2023-08-20T06:56:20;6.97;;;2.58;;
54372;SDS011;69157;53.094;10.016;2023-08-20T06:58:46;4.57;;;2.50;;
54372;SDS011;69157;53.094;10.016;2023-08-20T07:01:12;4.35;;;2.40;;
54372;SDS011;69157;53.094;10.016;2023-08-20T07:03:42;4.40;;;2.45;;
54372;SDS011;69157;53.094;10.016;2023-08-20T07:08:35;4.85;;;2.28;;
54372;SDS011;69157;53.094;10.016;2023-08-20T07:11:01;3.78;;;2.03;;
54372;SDS011;69157;53.094;10.016;2023-08-20T07:13:27;2.97;;;2.03;;
54372;SDS011;69157;53.094;10.016;2023-08-20T07:15:53;4.30;;;2.15;;
54372;SDS011;69157;53.094;10.016;2023-08-20T07:18:20;3.17;;;1.95;;
54372;SDS011;69157;53.094;10.016;2023-08-20T07:20:46;3.00;;;2.00;;
54372;SDS011;69157;53.094;10.016;2023-08-20T07:23:12;1.90;;;1.52;;
54372;SDS011;69157;53.094;10.016;2023-08-20T07:25:39;1.80;;;1.52;;
54372;SDS011;69157;53.094;10.016;2023-08-20T07:28:05;3.72;;;1.55;;
54372;SDS011;69157;53.094;10.016;2023-08-20T07:30:32;1.40;;;1.30;;
54372;SDS011;69157;53.094;10.016;2023-08-20T07:32:58;2.40;;;1.20;;
54372;SDS011;69157;53.094;10.016;2023-08-20T07:35:24;2.38;;;1.10;;
54372;SDS011;69157;53.094;10.016;2023-08-20T07:37:50;2.47;;;1.15;;
54372;SDS011;69157;53.094;10.016;2023-08-20T07:40:17;3.55;;;1.10;;
54372;SDS011;69157;53.094;10.016;2023-08-20T07:42:43;3.40;;;1.08;;
54372;SDS011;69157;53.094;10.016;2023-08-20T07:45:09;1.77;;;1.17;;
54372;SDS011;69157;53.094;10.016;2023-08-20T07:47:35;1.27;;;1.08;;
54372;SDS011;69157;53.094;10.016;2023-08-20T07:50:02;0.90;;;0.63;;
54372;SDS011;69157;53.094;10.016;2023-08-20T07:52:28;0.90;;;0.80;;
54372;SDS011;69157;53.094;10.016;2023-08-20T07:54:54;1.15;;;0.73;;
54372;SDS011;69157;53.094;10.016;2023-08-20T07:57:20;2.33;;;0.80;;
54372;SDS011;69157;53.094;10.016;2023-08-20T07:59:48;0.73;;;0.70;;
54372;SDS011;69157;53.094;10.016;2023-08-20T08:02:14;1.30;;;0.88;;
54372;SDS011;69157;53.094;10.016;2023-08-20T08:04:40;3.08;;;0.90;;
54372;SDS011;69157;53.094;10.016;2023-08-20T08:07:06;1.58;;;0.80;;
54372;SDS011;69157;53.094;10.016;2023-08-20T08:09:32;1.73;;;1.08;;
54372;SDS011;69157;53.094;10.016;2023-08-20T08:11:58;1.27;;;0.77;;
54372;SDS011;69157;53.094;10.016;2023-08-20T08:14:24;2.25;;;0.80;;
54372;SDS011;69157;53.094;10.016;2023-08-20T08:16:50;2.70;;;0.88;;
54372;SDS011;69157;53.094;10.016;2023-08-20T08:19:17;1.67;;;0.80;;
54372;SDS011;69157;53.094;10.016;2023-08-20T08:21:44;2.55;;;1.73;;
54372;SDS011;69157;53.094;10.016;2023-08-20T08:24:11;2.80;;;1.00;;
54372;SDS011;69157;53.094;10.016;2023-08-20T08:26:37;2.05;;;0.70;;
54372;SDS011;69157;53.094;10.016;2023-08-20T08:29:03;3.30;;;1.20;;
54372;SDS011;69157;53.094;10.016;2023-08-20T08:31:29;0.90;;;0.80;;
54372;SDS011;69157;53.094;10.016;2023-08-20T08:33:55;2.25;;;0.95;;
54372;SDS011;69157;53.094;10.016;2023-08-20T08:36:22;2.13;;;1.13;;
54372;SDS011;69157;53.094;10.016;2023-08-20T08:38:50;1.98;;;1.08;;
54372;SDS011;69157;53.094;10.016;2023-08-20T08:41:16;1.35;;;1.05;;
54372;SDS011;69157;53.094;10.016;2023-08-20T08:43:42;1.95;;;0.90;;
54372;SDS011;69157;53.094;10.016;2023-08-20T08:46:14;2.85;;;1.05;;
54372;SDS011;69157;53.094;10.016;2023-08-20T08:48:42;2.65;;;0.98;;
54372;SDS011;69157;53.094;10.016;2023-08-20T08:51:08;1.50;;;0.88;;
54372;SDS011;69157;53.094;10.016;2023-08-20T08:53:35;2.53;;;1.25;;
54372;SDS011;69157;53.094;10.016;2023-08-20T08:56:01;2.10;;;1.30;;
54372;SDS011;69157;53.094;10.016;2023-08-20T08:58:33;4.13;;;1.30;;
54372;SDS011;69157;53.094;10.016;2023-08-20T09:00:59;2.90;;;1.60;;
54372;SDS011;69157;53.094;10.016;2023-08-20T09:03:26;2.20;;;1.63;;
54372;SDS011;69157;53.094;10.016;2023-08-20T09:05:55;1.95;;;1.20;;
54372;SDS011;69157;53.094;10.016;2023-08-20T09:08:22;4.88;;;1.65;;
54372;SDS011;69157;53.094;10.016;2023-08-20T09:10:52;4.47;;;1.45;;
54372;SDS011;69157;53.094;10.016;2023-08-20T09:13:22;2.58;;;1.75;;
54372;SDS011;69157;53.094;10.016;2023-08-20T09:15:50;2.83;;;1.50;;
54372;SDS011;69157;53.094;10.016;2023-08-20T09:18:16;2.80;;;2.10;;
54372;SDS011;69157;53.094;10.016;2023-08-20T09:20:42;2.00;;;1.65;;
54372;SDS011;69157;53.094;10.016;2023-08-20T09:23:11;1.63;;;1.35;;
54372;SDS011;69157;53.094;10.016;2023-08-20T09:25:38;3.17;;;1.60;;
54372;SDS011;69157;53.094;10.016;2023-08-20T09:28:04;4.35;;;1.70;;
54372;SDS011;69157;53.094;10.016;2023-08-20T09:30:31;3.13;;;1.70;;
54372;SDS011;69157;53.094;10.016;2023-08-20T09:35:30;2.85;;;1.83;;
54372;SDS011;69157;53.094;10.016;2023-08-20T09:37:59;3.80;;;1.85;;
54372;SDS011;69157;53.094;10.016;2023-08-20T09:40:26;1.98;;;1.70;;
54372;SDS011;69157;53.094;10.016;2023-08-20T09:42:53;3.55;;;2.67;;
54372;SDS011;69157;53.094;10.016;2023-08-20T09:45:20;2.80;;;1.40;;
54372;SDS011;69157;53.094;10.016;2023-08-20T09:47:48;3.10;;;1.85;;
54372;SDS011;69157;53.094;10.016;2023-08-20T09:50:16;2.60;;;1.58;;
54372;SDS011;69157;53.094;10.016;2023-08-20T09:53:01;2.75;;;1.45;;
54372;SDS011;69157;53.094;10.016;2023-08-20T09:55:29;1.90;;;1.35;;
54372;SDS011;69157;53.094;10.016;2023-08-20T09:57:56;4.28;;;1.60;;
54372;SDS011;69157;53.094;10.016;2023-08-20T10:00:22;3.15;;;1.67;;
54372;SDS011;69157;53.094;10.016;2023-08-20T10:02:48;1.75;;;1.52;;
54372;SDS011;69157;53.094;10.016;2023-08-20T10:05:15;2.95;;;1.50;;
54372;SDS011;69157;53.094;10.016;2023-08-20T10:07:42;1.42;;;1.33;;
54372;SDS011;69157;53.094;10.016;2023-08-20T10:10:08;2.13;;;1.60;;
54372;SDS011;69157;53.094;10.016;2023-08-20T10:12:38;2.95;;;1.73;;
54372;SDS011;69157;53.094;10.016;2023-08-20T10:15:07;1.88;;;1.50;;
54372;SDS011;69157;53.094;10.016;2023-08-20T10:17:34;2.67;;;1.50;;
54372;SDS011;69157;53.094;10.016;2023-08-20T10:20:03;2.17;;;1.50;;
54372;SDS011;69157;53.094;10.016;2023-08-20T10:22:39;3.00;;;1.65;;
54372;SDS011;69157;53.094;10.016;2023-08-20T10:25:07;3.10;;;1.75;;
54372;SDS011;69157;53.094;10.016;2023-08-20T10:27:37;2.95;;;1.80;;
54372;SDS011;69157;53.094;10.016;2023-08-20T10:30:10;3.90;;;2.03;;
54372;SDS011;69157;53.094;10.016;2023-08-20T10:35:13;2.13;;;1.30;;
54372;SDS011;69157;53.094;10.016;2023-08-20T10:37:56;2.95;;;1.70;;
54372;SDS011;69157;53.094;10.016;2023-08-20T10:43:19;1.75;;;1.50;;
54372;SDS011;69157;53.094;10.016;2023-08-20T10:46:01;2.97;;;1.50;;
54372;SDS011;69157;53.094;10.016;2023-08-20T10:48:28;2.43;;;1.57;;
54372;SDS011;69157;53.094;10.016;2023-08-20T10:50:55;1.52;;;1.42;;
54372;SDS011;69157;53.094;10.016;2023-08-20T10:53:24;1.83;;;1.67;;
54372;SDS011;69157;53.094;10.016;2023-08-20T10:55:50;2.40;;;1.67;;
54372;SDS011;69157;53.094;10.016;2023-08-20T10:58:16;3.13;;;1.60;;
54372;SDS011;69157;53.094;10.016;2023-08-20T11:00:42;3.35;;;1.60;;
54372;SDS011;69157;53.094;10.016;2023-08-20T11:03:09;3.58;;;1.88;;
54372;SDS011;69157;53.094;10.016;2023-08-20T11:05:35;1.40;;;1.20;;
54372;SDS011;69157;53.094;10.016;2023-08-20T11:08:01;2.30;;;1.50;;
54372;SDS011;69157;53.094;10.016;2023-08-20T11:10:29;3.55;;;1.30;;
54372;SDS011;69157;53.094;10.016;2023-08-20T11:12:55;2.95;;;1.50;;
54372;SDS011;69157;53.094;10.016;2023-08-20T11:15:21;1.88;;;1.30;;
54372;SDS011;69157;53.094;10.016;2023-08-20T11:17:47;1.40;;;1.30;;
54372;SDS011;69157;53.094;10.016;2023-08-20T11:20:14;1.92;;;1.30;;
54372;SDS011;69157;53.094;10.016;2023-08-20T11:22:40;1.42;;;1.27;;
54372;SDS011;69157;53.094;10.016;2023-08-20T11:25:12;1.83;;;1.45;;
54372;SDS011;69157;53.094;10.016;2023-08-20T11:27:42;2.13;;;1.40;;
54372;SDS011;69157;53.094;10.016;2023-08-20T11:30:09;2.95;;;1.42;;
54372;SDS011;69157;53.094;10.016;2023-08-20T11:32:37;1.48;;;1.30;;
54372;SDS011;69157;53.094;10.016;2023-08-20T11:35:04;3.38;;;1.42;;
54372;SDS011;69157;53.094;10.016;2023-08-20T11:37:31;2.40;;;1.35;;
54372;SDS011;69157;53.094;10.016;2023-08-20T11:39:58;3.22;;;1.63;;
54372;SDS011;69157;53.094;10.016;2023-08-20T11:42:24;2.28;;;1.38;;
54372;SDS011;69157;53.094;10.016;2023-08-20T11:44:50;1.70;;;1.30;;
54372;SDS011;69157;53.094;10.016;2023-08-20T11:47:17;2.95;;;1.40;;
54372;SDS011;69157;53.094;10.016;2023-08-20T11:49:43;3.38;;;1.20;;
54372;SDS011;69157;53.094;10.016;2023-08-20T11:52:10;1.60;;;1.30;;
54372;SDS011;69157;53.094;10.016;2023-08-20T11:54:37;4.72;;;1.65;;
54372;SDS011;69157;53.094;10.016;2023-08-20T11:57:04;1.83;;;1.40;;
54372;SDS011;69157;53.094;10.016;2023-08-20T11:59:30;2.85;;;2.40;;
54372;SDS011;69157;53.094;10.016;2023-08-20T12:01:57;2.53;;;1.58;;
54372;SDS011;69157;53.094;10.016;2023-08-20T12:04:25;3.15;;;1.73;;
54372;SDS011;69157;53.094;10.016;2023-08-20T12:07:05;1.85;;;1.20;;
54372;SDS011;69157;53.094;10.016;2023-08-20T12:11:57;1.58;;;1.33;;
54372;SDS011;69157;53.094;10.016;2023-08-20T12:14:24;2.70;;;1.10;;
54372;SDS011;69157;53.094;10.016;2023-08-20T12:16:53;2.10;;;1.42;;
54372;SDS011;69157;53.094;10.016;2023-08-20T12:19:19;2.53;;;1.33;;
54372;SDS011;69157;53.094;10.016;2023-08-20T12:21:45;1.50;;;1.20;;
54372;SDS011;69157;53.094;10.016;2023-08-20T12:24:11;3.30;;;1.92;;
54372;SDS011;69157;53.094;10.016;2023-08-20T12:26:40;3.40;;;2.40;;
54372;SDS011;69157;53.094;10.016;2023-08-20T12:29:07;2.63;;;1.50;;
54372;SDS011;69157;53.094;10.016;2023-08-20T12:31:33;1.67;;;1.52;;
54372;SDS011;69157;53.094;10.016;2023-08-20T12:33:59;2.38;;;1.30;;
54372;SDS011;69157;53.094;10.016;2023-08-20T12:36:25;2.67;;;1.50;;
54372;SDS011;69157;53.094;10.016;2023-08-20T12:38:51;1.60;;;1.35;;
54372;SDS011;69157;53.094;10.016;2023-08-20T12:41:18;2.10;;;1.40;;
54372;SDS011;69157;53.094;10.016;2023-08-20T12:43:44;1.52;;;1.27;;
54372;SDS011;69157;53.094;10.016;2023-08-20T12:46:10;2.28;;;1.50;;
54372;SDS011;69157;53.094;10.016;2023-08-20T12:48:37;1.88;;;1.30;;
54372;SDS011;69157;53.094;10.016;2023-08-20T12:51:03;1.80;;;1.25;;
54372;SDS011;69157;53.094;10.016;2023-08-20T12:53:30;1.55;;;1.20;;
54372;SDS011;69157;53.094;10.016;2023-08-20T12:55:56;2.10;;;1.25;;
54372;SDS011;69157;53.094;10.016;2023-08-20T12:58:22;2.28;;;1.60;;
54372;SDS011;69157;53.094;10.016;2023-08-20T13:00:49;1.90;;;1.33;;
54372;SDS011;69157;53.094;10.016;2023-08-20T13:03:16;1.52;;;1.30;;
54372;SDS011;69157;53.094;10.016;2023-08-20T13:05:42;1.50;;;1.30;;
54372;SDS011;69157;53.094;10.016;2023-08-20T13:08:09;1.30;;;1.20;;
54372;SDS011;69157;53.094;10.016;2023-08-20T13:10:37;1.67;;;1.20;;
54372;SDS011;69157;53.094;10.016;2023-08-20T13:13:04;4.88;;;1.50;;
54372;SDS011;69157;53.094;10.016;2023-08-20T13:15:30;2.17;;;1.60;;
54372;SDS011;69157;53.094;10.016;2023-08-20T13:17:56;2.63;;;1.48;;
54372;SDS011;69157;53.094;10.016;2023-08-20T13:20:22;3.25;;;1.77;;
54372;SDS011;69157;53.094;10.016;2023-08-20T13:22:50;2.42;;;1.60;;
54372;SDS011;69157;53.094;10.016;2023-08-20T13:25:16;1.60;;;1.50;;
54372;SDS011;69157;53.094;10.016;2023-08-20T13:27:42;2.05;;;1.70;;
54372;SDS011;69157;53.094;10.016;2023-08-20T13:30:09;2.75;;;1.67;;
54372;SDS011;69157;53.094;10.016;2023-08-20T13:32:35;3.00;;;1.42;;
54372;SDS011;69157;53.094;10.016;2023-08-20T13:35:01;1.52;;;1.40;;
54372;SDS011;69157;53.094;10.016;2023-08-20T13:37:31;1.70;;;1.40;;
54372;SDS011;69157;53.094;10.016;2023-08-20T13:39:57;2.03;;;1.42;;
54372;SDS011;69157;53.094;10.016;2023-08-20T13:42:23;2.03;;;1.55;;
54372;SDS011;69157;53.094;10.016;2023-08-20T13:44:49;2.90;;;1.60;;
54372;SDS011;69157;53.094;10.016;2023-08-20T13:47:16;2.17;;;1.58;;
54372;SDS011;69157;53.094;10.016;2023-08-20T13:49:42;2.08;;;1.67;;
54372;SDS011;69157;53.094;10.016;2023-08-20T13:52:08;2.47;;;1.48;;
54372;SDS011;69157;53.094;10.016;2023-08-20T13:54:35;3.25;;;1.52;;
54372;SDS011;69157;53.094;10.016;2023-08-20T13:57:01;2.55;;;1.70;;
54372;SDS011;69157;53.094;10.016;2023-08-20T13:59:28;3.28;;;1.60;;
54372;SDS011;69157;53.094;10.016;2023-08-20T14:01:54;2.72;;;1.60;;
54372;SDS011;69157;53.094;10.016;2023-08-20T14:04:21;2.72;;;1.50;;
54372;SDS011;69157;53.094;10.016;2023-08-20T14:06:47;1.70;;;1.60;;
54372;SDS011;69157;53.094;10.016;2023-08-20T14:09:13;1.50;;;1.40;;
54372;SDS011;69157;53.094;10.016;2023-08-20T14:11:39;2.35;;;1.60;;
54372;SDS011;69157;53.094;10.016;2023-08-20T14:14:05;3.05;;;1.67;;
54372;SDS011;69157;53.094;10.016;2023-08-20T14:16:31;1.85;;;1.60;;
54372;SDS011;69157;53.094;10.016;2023-08-20T14:18:57;2.20;;;1.73;;
54372;SDS011;69157;53.094;10.016;2023-08-20T14:21:23;3.13;;;1.58;;
54372;SDS011;69157;53.094;10.016;2023-08-20T14:23:49;1.95;;;1.52;;
54372;SDS011;69157;53.094;10.016;2023-08-20T14:26:15;2.17;;;1.30;;
54372;SDS011;69157;53.094;10.016;2023-08-20T14:28:41;1.95;;;1.70;;
54372;SDS011;69157;53.094;10.016;2023-08-20T14:31:10;4.22;;;1.60;;
54372;SDS011;69157;53.094;10.016;2023-08-20T14:33:37;2.58;;;1.60;;
54372;SDS011;69157;53.094;10.016;2023-08-20T14:36:03;2.60;;;1.63;;
54372;SDS011;69157;53.094;10.016;2023-08-20T14:38:29;1.80;;;1.55;;
54372;SDS011;69157;53.094;10.016;2023-08-20T14:40:59;3.33;;;1.48;;
54372;SDS011;69157;53.094;10.016;2023-08-20T14:43:25;1.92;;;1.50;;
54372;SDS011;69157;53.094;10.016;2023-08-20T14:45:51;2.22;;;1.70;;
54372;SDS011;69157;53.094;10.016;2023-08-20T14:48:17;2.10;;;1.73;;
54372;SDS011;69157;53.094;10.016;2023-08-20T14:50:43;2.70;;;1.50;;